PADU Airport Information

Runway Information
Runway 12 Length 3900 ft width 100 ft
Elevation 22 ft Threshold 100 ft Heading 136
Runway 30 Length 3900 ft Width 100 ft
Elevation 13 ft Threshold 101 ft Heading 316
Airport Frequencies
Type AWOS Name AWOS 3 Frequency 125.8 MHZ
Type CNTR Name ANCHORAGE Frequency 121.4 MHZ
Type CTAF Name CTAF Frequency 122.6 MHZ
Type FSS Name COLD BAY R Frequency 122.6 MHZ
Type MISC Name DUTCH WX Frequency 129.5 MHZ
Airport Navaids
Type NDB-DME Name Dutch Harbor Frequency 283 KHZ
Airport Weather Information & NOTAM
ADDS - METARS form results

(2328 UTC 20 March 2019)
Data provider http://aviationweather.gov/metar/data/
 
METAR text: PADU 202323Z 03013KT 3SM -SN BR FEW008 BKN011 OVC031 02/00 A2927 RMK AO2 UPB21E23GSE2259SNB2259E21B23 BLK WTR E NE P0001
Conditions at: PADU (DUTCH HARBOR , AK, US) observed 2323 UTC 20 March 2019
Temperature: 2.0°C (36°F)
Dewpoint: 0.0°C (32°F) [RH = 87%]
Pressure (altimeter): 29.27 inches Hg (991.3 mb)
Winds: from the NNE (30 degrees) at 15 MPH (13 knots; 6.7 m/s)
Visibility: 3 miles ( 5 km)
Ceiling: 1100 feet AGL
Clouds: few clouds at 800 feet AGL
broken clouds at 1100 feet AGL
overcast cloud deck at 3100 feet AGL
Weather: -SN BR  (light snow, mist)

METAR text: PADU 202302Z 02009KT 5SM -SN BR BKN009 OVC013 02/M01 A2928 RMK AO2 GSE2259SNB2259 CIG 006V010 P0001
Conditions at: PADU (DUTCH HARBOR , AK, US) observed 2302 UTC 20 March 2019
Temperature: 2.0°C (36°F)
Dewpoint: -1.0°C (30°F) [RH = 80%]
Pressure (altimeter): 29.28 inches Hg (991.6 mb)
Winds: from the NNE (20 degrees) at 10 MPH (9 knots; 4.6 m/s)
Visibility: 5 miles ( 8 km)
Ceiling: 900 feet AGL
Clouds: broken clouds at 900 feet AGL
overcast cloud deck at 1300 feet AGL
Weather: -SN BR  (light snow, mist)

METAR text: PADU 202256Z 01012G19KT 2SM GS BR BKN007 OVC013 02/M01 A2928 RMK AO2 RAB35E38GSB38 CIG 006V011 SLP918 P0000 T00171006
Conditions at: PADU (DUTCH HARBOR , AK, US) observed 2256 UTC 20 March 2019
Temperature: 1.7°C (35°F)
Dewpoint: -0.6°C (31°F) [RH = 85%]
Pressure (altimeter): 29.28 inches Hg (991.6 mb)
[Sea-level pressure:  991.8 mb]
Winds: from the N (10 degrees) at 14 MPH (12 knots; 6.2 m/s)
gusting to 22 MPH (19 knots; 9.8 m/s)
Visibility: 2.00 miles (3.22 km)
Ceiling: 700 feet AGL
Clouds: broken clouds at 700 feet AGL
overcast cloud deck at 1300 feet AGL
Weather: GS BR  (small hail or graupel, mist)

METAR text: PADU 202254Z 01012G19KT 1 1/2SM GS BR SCT007 OVC013 02/M01 A2928 RMK AO2 RAB35E38GSB38 P0000
Conditions at: PADU (DUTCH HARBOR , AK, US) observed 2254 UTC 20 March 2019
Temperature: 2.0°C (36°F)
Dewpoint: -1.0°C (30°F) [RH = 80%]
Pressure (altimeter): 29.28 inches Hg (991.6 mb)
Winds: from the N (10 degrees) at 14 MPH (12 knots; 6.2 m/s)
gusting to 22 MPH (19 knots; 9.8 m/s)
Visibility: 1.50 miles (2.41 km)
Ceiling: 1300 feet AGL
Clouds: scattered clouds at 700 feet AGL
overcast cloud deck at 1300 feet AGL
Weather: GS BR  (small hail or graupel, mist)

METAR text: PADU 202247Z 03014G20KT 1 1/2SM GS BKN009 OVC015 02/M01 A2928 RMK AO2 RAB35E38GSB38 CIG 007V012 P0000
Conditions at: PADU (DUTCH HARBOR , AK, US) observed 2247 UTC 20 March 2019
Temperature: 2.0°C (36°F)
Dewpoint: -1.0°C (30°F) [RH = 80%]
Pressure (altimeter): 29.28 inches Hg (991.6 mb)
Winds: from the NNE (30 degrees) at 16 MPH (14 knots; 7.2 m/s)
gusting to 23 MPH (20 knots; 10.3 m/s)
Visibility: 1.50 miles (2.41 km)
Ceiling: 900 feet AGL
Clouds: broken clouds at 900 feet AGL
overcast cloud deck at 1500 feet AGL
Weather: GS  (small hail or graupel)

METAR text: PADU 202244Z 03015G20KT 5SM GS BR BKN012 BKN017 OVC022 02/00 A2928 RMK AO2 RAB35E38GSB38 P0000
Conditions at: PADU (DUTCH HARBOR , AK, US) observed 2244 UTC 20 March 2019
Temperature: 2.0°C (36°F)
Dewpoint: 0.0°C (32°F) [RH = 87%]
Pressure (altimeter): 29.28 inches Hg (991.6 mb)
Winds: from the NNE (30 degrees) at 17 MPH (15 knots; 7.7 m/s)
gusting to 23 MPH (20 knots; 10.3 m/s)
Visibility: 5 miles ( 8 km)
Ceiling: 1200 feet AGL
Clouds: broken clouds at 1200 feet AGL
broken clouds at 1700 feet AGL
overcast cloud deck at 2200 feet AGL
Weather: GS BR  (small hail or graupel, mist)

METAR text: PADU 202237Z 03012KT 8SM -RA BKN012 BKN022 03/01 A2928 RMK AO2 RAB35 P0000
Conditions at: PADU (DUTCH HARBOR , AK, US) observed 2237 UTC 20 March 2019
Temperature: 3.0°C (37°F)
Dewpoint: 1.0°C (34°F) [RH = 87%]
Pressure (altimeter): 29.28 inches Hg (991.6 mb)
Winds: from the NNE (30 degrees) at 14 MPH (12 knots; 6.2 m/s)
Visibility: 8 miles (13 km)
Ceiling: 1200 feet AGL
Clouds: broken clouds at 1200 feet AGL
broken clouds at 2200 feet AGL
Weather: -RA  (light rain)

Forecast for: PADU (DUTCH HARBOR , AK, US)
Text: PADU 202052Z 2021/2118 03010G18KT P6SM VCSH OVC015
Forecast period: 2100 UTC 20 March 2019 to 0200 UTC 21 March 2019
Forecast type: FROM: standard forecast or significant change
Winds: from the NNE (30 degrees) at 12 MPH (10 knots; 5.1 m/s)
gusting to 21 MPH (18 knots; 9.3 m/s)
Visibility: 6 or more miles 10+ km)
Ceiling: 1500 feet AGL
Clouds: overcast cloud deck at 1500 feet AGL
Weather: VCSH  (showers in vicinity)
Text: FM210200 01010G18KT P6SM OVC025
Forecast period: 0200 to 0900 UTC 21 March 2019
Forecast type: FROM: standard forecast or significant change
Winds: from the N (10 degrees) at 12 MPH (10 knots; 5.1 m/s)
gusting to 21 MPH (18 knots; 9.3 m/s)
Visibility: 6 or more miles 10+ km)
Ceiling: 2500 feet AGL
Clouds: overcast cloud deck at 2500 feet AGL
Weather: no significant weather forecast for this period
Text: FM210900 33010KT P6SM SCT025 OVC040
Forecast period: 0900 to 1800 UTC 21 March 2019
Forecast type: FROM: standard forecast or significant change
Winds: from the NNW (330 degrees) at 12 MPH (10 knots; 5.1 m/s)
Visibility: 6 or more miles 10+ km)
Ceiling: 4000 feet AGL
Clouds: scattered clouds at 2500 feet AGL
overcast cloud deck at 4000 feet AGL
Weather: no significant weather forecast for this period